Time;durP1;ratioP1;P1;durP2;ratioP2;P2;SDS_P1;SDS_P2;PMS_P1;PMS_P2;Temp;Humidity;BMP_temperature;BMP_pressure;BME280_temperature;BME280_humidity;BME280_pressure;Samples;Min_cycle;Max_cycle;Signal;HPM_P1;HPM_P2
2022/02/13 00:00:23;;;;;;;17.05;9.65;;;;;;;-0.92;71.25;99477.09;2617859;54;20073;-62
2022/02/13 00:02:55;;;;;;;16.77;9.27;;;;;;;-0.80;71.46;99478.88;2618237;54;20026;-61
2022/02/13 00:05:25;;;;;;;20.20;10.20;;;;;;;-0.72;71.24;99467.13;2617639;54;20019;-63
2022/02/13 00:07:55;;;;;;;16.42;9.10;;;;;;;-0.79;71.07;99464.94;2617988;54;20031;-62
2022/02/13 00:10:24;;;;;;;16.15;9.20;;;;;;;-0.91;71.29;99473.56;2618280;39;20406;-63
2022/02/13 00:12:54;;;;;;;16.65;9.40;;;;;;;-0.98;71.52;99463.69;2618290;54;20105;-63
2022/02/13 00:15:23;;;;;;;14.65;9.55;;;;;;;-1.00;71.85;99467.22;2617395;54;20035;-62
2022/02/13 00:17:56;;;;;;;14.63;8.65;;;;;;;-1.02;71.48;99458.72;2617487;54;20125;-63
2022/02/13 00:20:26;;;;;;;16.75;9.15;;;;;;;-1.02;71.44;99458.72;2618168;54;20031;-63
2022/02/13 00:22:56;;;;;;;18.95;9.75;;;;;;;-1.07;71.48;99457.34;2618064;54;20037;-63
2022/02/13 00:25:26;;;;;;;15.20;9.90;;;;;;;-1.10;71.56;99455.81;2617940;54;20062;-63
2022/02/13 00:27:56;;;;;;;19.02;9.65;;;;;;;-1.12;71.75;99456.84;2618215;54;20034;-63
2022/02/13 00:30:26;;;;;;;17.98;9.88;;;;;;;-0.97;72.05;99452.41;2617967;54;20026;-63
2022/02/13 00:32:58;;;;;;;12.15;8.73;;;;;;;-0.95;71.46;99445.31;2618039;54;20026;-62
2022/02/13 00:35:27;;;;;;;18.45;9.93;;;;;;;-1.03;71.72;99440.66;2618069;54;20125;-64
2022/02/13 00:37:57;;;;;;;18.65;9.27;;;;;;;-0.99;71.82;99436.91;2618046;54;20034;-62
2022/02/13 00:40:27;;;;;;;17.33;8.27;;;;;;;-0.96;71.65;99434.13;2618314;54;20039;-65
2022/02/13 00:42:56;;;;;;;16.55;10.43;;;;;;;-1.00;71.79;99446.47;2618213;54;20038;-63
2022/02/13 00:45:26;;;;;;;16.73;9.65;;;;;;;-1.15;71.56;99437.09;2618418;54;20122;-63
2022/02/13 00:47:58;;;;;;;18.70;10.18;;;;;;;-1.22;71.87;99432.47;2619023;47;20057;-62
2022/02/13 00:50:28;;;;;;;15.32;9.73;;;;;;;-1.12;72.32;99428.31;2619315;54;20030;-63
2022/02/13 00:52:58;;;;;;;16.48;9.55;;;;;;;-1.16;72.04;99426.84;2623565;54;20038;-64
2022/02/13 00:55:29;;;;;;;15.57;9.32;;;;;;;-1.18;72.20;99428.72;2623577;54;20050;-63
2022/02/13 00:57:59;;;;;;;13.13;8.95;;;;;;;-1.24;71.83;99419.56;2623901;54;20030;-63
2022/02/13 01:00:29;;;;;;;15.75;9.88;;;;;;;-1.32;72.29;99429.63;2623389;54;20033;-62
2022/02/13 01:03:03;;;;;;;17.63;9.23;;;;;;;-1.35;72.35;99419.44;2618353;47;20070;-63
2022/02/13 01:05:33;;;;;;;15.85;9.38;;;;;;;-1.35;71.74;99414.25;2618969;54;20027;-62
2022/02/13 01:08:02;;;;;;;14.80;9.82;;;;;;;-1.35;72.48;99415.13;2619167;54;20085;-62
2022/02/13 01:10:32;;;;;;;18.30;10.88;;;;;;;-1.29;72.25;99411.28;2620058;54;20044;-63
2022/02/13 01:13:01;;;;;;;20.48;10.73;;;;;;;-1.33;72.34;99413.25;2620541;54;20066;-63
2022/02/13 01:15:31;;;;;;;16.52;10.32;;;;;;;-1.40;71.96;99409.38;2619499;54;20034;-63
2022/02/13 01:18:04;;;;;;;18.45;9.90;;;;;;;-1.44;72.54;99420.06;2619511;54;20047;-63
2022/02/13 01:20:33;;;;;;;19.30;11.40;;;;;;;-1.52;72.05;99416.22;2620525;54;20078;-63
2022/02/13 01:23:03;;;;;;;19.48;10.20;;;;;;;-1.60;72.56;99417.66;2620740;54;20037;-62
2022/02/13 01:25:34;;;;;;;16.58;10.02;;;;;;;-1.62;72.55;99422.13;2619346;39;20442;-62
2022/02/13 01:28:03;;;;;;;14.00;8.77;;;;;;;-1.59;72.70;99414.97;2619121;54;20070;-63
2022/02/13 01:30:33;;;;;;;17.58;10.05;;;;;;;-1.57;72.77;99415.69;2618909;54;20034;-62
2022/02/13 01:33:05;;;;;;;17.95;8.70;;;;;;;-1.58;72.87;99414.03;2618799;54;20050;-62
2022/02/13 01:35:35;;;;;;;13.07;8.88;;;;;;;-1.52;72.62;99415.38;2621373;39;20133;-63
2022/02/13 01:38:05;;;;;;;13.35;8.73;;;;;;;-1.44;72.72;99407.09;2621338;54;20035;-64
2022/02/13 01:40:35;;;;;;;19.95;9.52;;;;;;;-1.63;72.36;99408.31;2619243;54;20061;-63
2022/02/13 01:43:04;;;;;;;16.65;9.32;;;;;;;-1.69;72.51;99408.72;2618614;54;20031;-63
2022/02/13 01:45:34;;;;;;;16.92;9.20;;;;;;;-1.64;72.81;99409.22;2618499;54;20023;-63
2022/02/13 01:48:08;;;;;;;15.10;8.90;;;;;;;-1.55;72.73;99415.59;2618427;54;20066;-63
2022/02/13 01:50:39;;;;;;;15.60;9.38;;;;;;;-1.40;73.02;99403.38;2618076;47;20534;-62
2022/02/13 01:53:09;;;;;;;13.65;8.80;;;;;;;-1.37;72.63;99406.59;2618648;54;20132;-61
2022/02/13 01:55:39;;;;;;;20.60;9.60;;;;;;;-1.34;72.59;99397.78;2618603;54;20074;-61
2022/02/13 01:58:09;;;;;;;15.18;8.55;;;;;;;-1.27;72.48;99402.47;2618783;39;20430;-60
2022/02/13 02:00:40;;;;;;;13.57;9.23;;;;;;;-1.35;71.65;99402.16;2619277;54;20026;-60
2022/02/13 02:03:13;;;;;;;14.35;8.85;;;;;;;-1.48;71.51;99401.28;2621680;54;20032;-62
2022/02/13 02:05:44;;;;;;;14.55;8.95;;;;;;;-1.58;71.73;99401.06;2619835;54;20029;-61
2022/02/13 02:08:13;;;;;;;15.35;8.70;;;;;;;-1.61;72.32;99400.44;2618701;54;20086;-61
2022/02/13 02:10:44;;;;;;;16.55;8.48;;;;;;;-1.55;72.48;99393.09;2618661;54;20018;-60
2022/02/13 02:13:15;;;;;;;12.88;8.20;;;;;;;-1.50;71.96;99388.44;2618560;54;20038;-63
2022/02/13 02:15:45;;;;;;;16.75;8.40;;;;;;;-1.55;72.05;99382.72;2618491;54;20034;-61
2022/02/13 02:18:17;;;;;;;14.65;8.85;;;;;;;-1.59;72.23;99378.69;2618391;54;20030;-61
2022/02/13 02:20:48;;;;;;;15.50;8.52;;;;;;;-1.61;72.37;99371.91;2618497;54;20031;-62
2022/02/13 02:23:20;;;;;;;13.20;7.95;;;;;;;-1.62;72.13;99375.44;2618840;39;20430;-62
2022/02/13 02:25:50;;;;;;;13.93;8.40;;;;;;;-1.71;72.23;99378.66;2618442;54;20022;-62
2022/02/13 02:28:19;;;;;;;11.18;7.97;;;;;;;-1.72;72.33;99375.22;2618549;54;20027;-63
2022/02/13 02:30:50;;;;;;;13.38;7.70;;;;;;;-1.60;72.50;99369.22;2618638;54;20026;-63
2022/02/13 02:33:19;;;;;;;16.15;8.05;;;;;;;-1.49;72.47;99365.91;2618266;54;20070;-62
2022/02/13 02:35:49;;;;;;;14.68;8.25;;;;;;;-1.41;72.12;99363.63;2618665;39;20101;-62
2022/02/13 02:38:22;;;;;;;15.88;7.80;;;;;;;-1.41;71.98;99363.63;2618529;54;20065;-62
2022/02/13 02:40:52;;;;;;;12.73;8.00;;;;;;;-1.46;72.04;99359.72;2617986;54;20071;-63
2022/02/13 02:43:21;;;;;;;13.88;7.68;;;;;;;-1.54;72.04;99352.44;2618112;54;20545;-63
2022/02/13 02:45:52;;;;;;;13.77;7.65;;;;;;;-1.63;71.51;99353.06;2617997;54;20041;-62
2022/02/13 02:48:22;;;;;;;17.15;8.98;;;;;;;-1.73;71.91;99352.00;2617825;54;20038;-61
2022/02/13 02:50:54;;;;;;;16.05;8.20;;;;;;;-1.73;72.48;99352.00;2618800;39;20425;-61
2022/02/13 02:53:26;;;;;;;14.45;8.50;;;;;;;-1.66;72.23;99346.31;2618405;54;20034;-62
2022/02/13 02:55:55;;;;;;;13.70;7.85;;;;;;;-1.67;72.42;99333.47;2618059;54;20038;-61
2022/02/13 02:58:26;;;;;;;15.80;7.78;;;;;;;-1.64;72.40;99343.59;2617752;54;20038;-61
2022/02/13 03:00:58;;;;;;;14.27;8.23;;;;;;;-1.72;71.99;99344.09;2618884;54;20078;-62
2022/02/13 03:03:28;;;;;;;13.50;7.88;;;;;;;-1.73;71.93;99326.91;2619272;54;20150;-63
2022/02/13 03:05:58;;;;;;;14.57;8.60;;;;;;;-1.82;72.07;99333.53;2618733;54;20030;-62
2022/02/13 03:08:30;;;;;;;12.32;7.75;;;;;;;-1.93;72.31;99330.81;2618776;54;20035;-62
2022/02/13 03:11:01;;;;;;;15.80;7.43;;;;;;;-1.92;72.42;99335.06;2619931;31;20540;-63
2022/02/13 03:13:31;;;;;;;13.60;7.90;;;;;;;-1.87;72.58;99337.34;2619017;54;20026;-61
2022/02/13 03:16:01;;;;;;;15.50;7.63;;;;;;;-1.84;72.71;99339.72;2618811;54;20113;-61
2022/02/13 03:18:31;;;;;;;16.52;8.00;;;;;;;-1.89;72.28;99336.63;2618423;54;20043;-61
2022/02/13 03:21:03;;;;;;;13.40;8.70;;;;;;;-1.82;72.75;99332.69;2618933;54;20033;-62
2022/02/13 03:23:35;;;;;;;13.90;8.15;;;;;;;-1.72;72.29;99333.72;2618557;54;20034;-62
2022/02/13 03:26:05;;;;;;;13.00;8.00;;;;;;;-1.63;72.62;99338.34;2618293;54;20550;-62
2022/02/13 03:28:34;;;;;;;12.95;8.25;;;;;;;-1.51;72.40;99331.50;2618436;54;20570;-64
2022/02/13 03:31:05;;;;;;;12.07;7.93;;;;;;;-1.51;71.79;99328.91;2617470;54;20034;-62
2022/02/13 03:33:36;;;;;;;16.05;8.20;;;;;;;-1.52;71.46;99329.81;2618158;54;20046;-62
2022/02/13 03:36:07;;;;;;;13.50;7.45;;;;;;;-1.51;71.41;99332.31;2617995;54;20041;-62
2022/02/13 03:38:40;;;;;;;11.57;6.70;;;;;;;-1.51;71.16;99334.09;2618366;54;20030;-62
2022/02/13 03:41:09;;;;;;;13.05;8.05;;;;;;;-1.55;71.13;99333.47;2618344;54;20030;-62
2022/02/13 03:43:39;;;;;;;11.38;7.75;;;;;;;-1.53;71.23;99326.41;2618950;31;20537;-62
2022/02/13 03:46:10;;;;;;;13.90;7.40;;;;;;;-1.56;70.84;99330.94;2617467;51;20050;-62
2022/02/13 03:48:39;;;;;;;11.45;6.72;;;;;;;-1.59;71.24;99324.22;2618254;54;20122;-62
2022/02/13 03:51:11;;;;;;;13.98;8.00;;;;;;;-1.65;71.45;99327.22;2618002;54;20026;-62
2022/02/13 03:53:43;;;;;;;12.20;7.93;;;;;;;-1.80;71.22;99321.31;2618205;54;20151;-61
2022/02/13 03:56:13;;;;;;;13.35;7.97;;;;;;;-1.97;71.18;99329.34;2618074;54;20019;-63
2022/02/13 03:58:42;;;;;;;11.73;7.40;;;;;;;-2.10;71.86;99323.31;2617765;54;20022;-63
2022/02/13 04:01:13;;;;;;;15.30;8.02;;;;;;;-2.13;72.05;99321.72;2617364;54;20030;-63
2022/02/13 04:03:43;;;;;;;13.00;8.27;;;;;;;-2.11;72.21;99319.06;2617980;54;20122;-62
2022/02/13 04:06:15;;;;;;;15.93;8.35;;;;;;;-2.12;72.29;99325.19;2617368;54;20073;-63
2022/02/13 04:08:47;;;;;;;14.68;8.13;;;;;;;-2.11;72.35;99319.88;2618979;54;20078;-63
2022/02/13 04:11:17;;;;;;;15.35;8.38;;;;;;;-2.02;72.52;99321.03;2623423;54;20022;-63
2022/02/13 04:13:51;;;;;;;13.63;8.50;;;;;;;-2.00;72.55;99314.84;2622773;47;20041;-63
2022/02/13 04:16:21;;;;;;;12.48;7.80;;;;;;;-2.03;72.48;99307.25;2623151;54;20128;-63
2022/02/13 04:18:50;;;;;;;11.85;7.45;;;;;;;-1.96;72.61;99305.13;2626305;39;20418;-63
2022/02/13 04:21:21;;;;;;;12.50;7.60;;;;;;;-2.00;72.41;99303.66;2624314;54;20034;-63
2022/02/13 04:23:53;;;;;;;11.93;7.53;;;;;;;-2.07;72.41;99300.63;2623898;54;20035;-60
2022/02/13 04:26:22;;;;;;;11.38;7.75;;;;;;;-2.13;72.05;99295.00;2623436;54;20538;-61
2022/02/13 04:28:52;;;;;;;12.07;8.52;;;;;;;-2.16;72.41;99284.88;2626376;39;20717;-63
2022/02/13 04:31:21;;;;;;;12.27;7.45;;;;;;;-2.13;72.58;99282.06;2623462;54;20545;-63
2022/02/13 04:33:51;;;;;;;14.38;7.55;;;;;;;-2.15;72.59;99278.75;2618562;51;20077;-63
2022/02/13 04:36:22;;;;;;;13.93;8.15;;;;;;;-2.19;72.27;99283.28;2619731;54;20062;-63
2022/02/13 04:38:54;;;;;;;14.90;8.52;;;;;;;-2.20;72.76;99278.22;2620562;39;20417;-63
2022/02/13 04:41:25;;;;;;;11.73;7.53;;;;;;;-2.21;72.57;99272.19;2622730;39;20425;-63
2022/02/13 04:43:54;;;;;;;16.63;7.85;;;;;;;-2.23;73.03;99275.81;2619852;54;20035;-62
2022/02/13 04:46:24;;;;;;;12.45;8.07;;;;;;;-2.20;72.91;99276.47;2619617;54;20023;-63
2022/02/13 04:48:54;;;;;;;14.90;8.30;;;;;;;-2.18;72.45;99271.16;2620029;54;20031;-63
2022/02/13 04:51:24;;;;;;;13.73;8.60;;;;;;;-2.20;72.73;99276.47;2619500;54;20026;-63
2022/02/13 04:53:56;;;;;;;13.30;8.45;;;;;;;-2.17;73.15;99270.22;2619572;54;20046;-63
2022/02/13 04:56:25;;;;;;;15.65;8.18;;;;;;;-2.11;73.08;99280.19;2619519;54;20085;-62
2022/02/13 04:58:55;;;;;;;13.65;8.70;;;;;;;-2.10;72.91;99277.50;2619606;54;20027;-62
2022/02/13 05:01:25;;;;;;;16.85;9.50;;;;;;;-2.20;72.50;99281.63;2618982;54;20026;-63
2022/02/13 05:03:56;;;;;;;17.23;8.57;;;;;;;-2.22;72.82;99273.13;2619193;54;20049;-63
2022/02/13 05:06:26;;;;;;;18.90;8.90;;;;;;;-2.20;73.14;99260.09;2618956;54;20030;-64
2022/02/13 05:09:00;;;;;;;12.73;8.45;;;;;;;-2.17;73.16;99252.94;2618589;54;20034;-62
2022/02/13 05:11:29;;;;;;;19.50;9.60;;;;;;;-2.16;72.80;99256.38;2618772;54;20034;-61
2022/02/13 05:14:01;;;;;;;15.45;9.18;;;;;;;-2.20;73.13;99254.91;2618295;54;20545;-62
2022/02/13 05:16:31;;;;;;;14.60;9.40;;;;;;;-2.20;73.06;99249.72;2618418;47;20029;-62
2022/02/13 05:19:01;;;;;;;14.75;8.73;;;;;;;-2.29;73.26;99257.19;2618755;54;20056;-62
2022/02/13 05:21:30;;;;;;;18.73;9.40;;;;;;;-2.30;73.35;99245.13;2619659;31;20517;-62
2022/02/13 05:24:02;;;;;;;16.85;10.00;;;;;;;-2.30;73.45;99241.72;2618502;54;20078;-61
2022/02/13 05:26:32;;;;;;;16.90;9.40;;;;;;;-2.23;73.68;99240.38;2618899;54;20046;-62
2022/02/13 05:29:01;;;;;;;13.35;8.95;;;;;;;-2.14;73.22;99234.59;2618586;54;20031;-62
2022/02/13 05:31:32;;;;;;;12.82;9.10;;;;;;;-2.13;73.13;99241.44;2618706;54;20026;-62
2022/02/13 05:34:01;;;;;;;14.55;8.93;;;;;;;-2.14;73.43;99226.81;2618345;54;20043;-62
2022/02/13 05:36:31;;;;;;;14.73;8.38;;;;;;;-2.07;72.76;99225.50;2618329;54;20073;-62
2022/02/13 05:39:03;;;;;;;14.85;8.57;;;;;;;-2.06;72.83;99223.72;2618015;54;20077;-63
2022/02/13 05:41:33;;;;;;;15.43;8.80;;;;;;;-2.09;72.72;99222.16;2618494;54;20026;-62
2022/02/13 05:44:02;;;;;;;14.07;8.40;;;;;;;-2.06;72.86;99221.97;2617801;54;20065;-62
2022/02/13 05:46:32;;;;;;;14.63;7.82;;;;;;;-2.04;72.94;99216.69;2622064;54;20569;-62
2022/02/13 05:49:02;;;;;;;13.40;8.55;;;;;;;-2.08;72.23;99218.66;2621731;47;20030;-63
2022/02/13 05:51:32;;;;;;;15.88;9.10;;;;;;;-2.07;72.88;99220.31;2619909;54;20047;-62
2022/02/13 05:54:05;;;;;;;12.88;9.30;;;;;;;-1.98;72.65;99210.25;2619043;39;20425;-62
2022/02/13 05:56:34;;;;;;;17.30;9.32;;;;;;;-1.95;72.45;99212.66;2619201;54;20038;-62
2022/02/13 05:59:04;;;;;;;13.40;9.02;;;;;;;-1.94;72.53;99217.72;2617862;47;20033;-62
2022/02/13 06:01:34;;;;;;;12.73;7.80;;;;;;;-1.96;72.61;99214.44;2618745;54;20037;-62
2022/02/13 06:04:03;;;;;;;12.77;8.70;;;;;;;-1.96;72.75;99219.59;2618331;54;20059;-61
2022/02/13 06:06:33;;;;;;;15.73;7.75;;;;;;;-1.97;72.37;99212.75;2618684;54;20042;-62
2022/02/13 06:09:05;;;;;;;14.05;8.18;;;;;;;-1.95;72.56;99205.72;2618554;54;20078;-62
2022/02/13 06:11:35;;;;;;;12.93;8.30;;;;;;;-1.94;72.80;99198.75;2619210;31;20490;-62
2022/02/13 06:14:04;;;;;;;13.90;7.78;;;;;;;-1.93;72.46;99210.78;2617989;54;20039;-62
2022/02/13 06:16:34;;;;;;;14.80;8.13;;;;;;;-1.95;72.36;99208.31;2619243;39;20422;-62
2022/02/13 06:19:03;;;;;;;13.20;7.60;;;;;;;-1.96;72.52;99203.19;2618846;54;20046;-62
2022/02/13 06:21:33;;;;;;;10.55;7.30;;;;;;;-1.98;72.40;99199.91;2618591;39;20425;-62
2022/02/13 06:24:06;;;;;;;14.07;8.10;;;;;;;-2.09;72.99;99203.19;2618879;39;20451;-62
2022/02/13 06:26:36;;;;;;;12.13;7.47;;;;;;;-1.97;72.61;99198.97;2618659;54;20030;-62
2022/02/13 06:29:07;;;;;;;12.93;7.32;;;;;;;-1.95;72.51;99197.13;2618470;39;20735;-62
2022/02/13 06:31:37;;;;;;;13.05;7.85;;;;;;;-1.95;73.03;99197.13;2618698;54;20097;-62
2022/02/13 06:34:07;;;;;;;16.55;8.73;;;;;;;-1.88;72.49;99194.00;2618127;54;20057;-62
2022/02/13 06:36:37;;;;;;;12.60;8.05;;;;;;;-1.93;72.77;99187.47;2618003;46;20041;-62
2022/02/13 06:39:09;;;;;;;16.65;9.13;;;;;;;-1.89;72.59;99184.56;2618856;54;20041;-62
2022/02/13 06:41:39;;;;;;;16.45;8.75;;;;;;;-1.84;72.48;99185.09;2617808;54;20041;-62
2022/02/13 06:44:09;;;;;;;15.45;8.70;;;;;;;-1.85;72.09;99177.41;2618430;54;20045;-63
2022/02/13 06:46:39;;;;;;;14.30;8.63;;;;;;;-1.86;72.44;99179.16;2618770;54;20038;-60
2022/02/13 06:49:09;;;;;;;14.93;8.68;;;;;;;-1.79;73.06;99175.22;2619043;54;20037;-61
2022/02/13 06:51:39;;;;;;;13.43;8.13;;;;;;;-1.75;72.59;99183.63;2618575;54;20560;-60
2022/02/13 06:54:11;;;;;;;15.10;8.60;;;;;;;-1.73;72.15;99173.13;2617831;54;20544;-61
2022/02/13 06:56:41;;;;;;;16.38;7.90;;;;;;;-1.68;72.64;99174.47;2619171;39;20461;-61
2022/02/13 06:59:10;;;;;;;14.15;7.88;;;;;;;-1.66;72.09;99177.81;2619204;54;20023;-64
2022/02/13 07:01:40;;;;;;;16.73;8.57;;;;;;;-1.71;72.34;99169.53;2618578;54;20541;-63
2022/02/13 07:04:09;;;;;;;15.18;8.52;;;;;;;-1.72;72.56;99173.03;2618680;54;20034;-63
2022/02/13 07:06:39;;;;;;;11.73;8.15;;;;;;;-1.71;72.70;99174.72;2619594;54;20035;-62
2022/02/13 07:09:11;;;;;;;14.57;8.75;;;;;;;-1.74;72.73;99174.91;2619578;54;20042;-63
2022/02/13 07:11:40;;;;;;;13.18;9.63;;;;;;;-1.66;73.01;99172.63;2618830;54;20059;-63
2022/02/13 07:14:10;;;;;;;15.57;8.05;;;;;;;-1.59;72.88;99173.84;2619396;54;20063;-63
2022/02/13 07:16:40;;;;;;;14.70;9.05;;;;;;;-1.53;72.43;99177.78;2619462;54;20046;-64
2022/02/13 07:19:10;;;;;;;16.63;11.10;;;;;;;-1.53;72.62;99180.38;2620558;54;20046;-63
2022/02/13 07:21:40;;;;;;;14.45;10.48;;;;;;;-1.57;72.30;99174.56;2619830;54;20063;-62
2022/02/13 07:24:14;;;;;;;18.10;10.85;;;;;;;-1.48;72.86;99169.66;2618406;54;20038;-63
2022/02/13 07:26:43;;;;;;;17.08;10.40;;;;;;;-1.42;73.01;99174.44;2621995;54;20041;-64
2022/02/13 07:29:13;;;;;;;14.57;10.48;;;;;;;-1.22;72.94;99163.50;2622057;54;20027;-62
2022/02/13 07:31:43;;;;;;;17.23;10.10;;;;;;;-1.19;73.03;99172.78;2622173;54;20565;-62
2022/02/13 07:34:13;;;;;;;15.80;10.25;;;;;;;-1.05;72.98;99168.28;2622197;54;21019;-60
2022/02/13 07:36:42;;;;;;;18.38;11.65;;;;;;;-1.07;72.41;99172.75;2619122;54;20608;-61
2022/02/13 07:39:15;;;;;;;14.38;9.27;;;;;;;-1.01;72.32;99172.31;2618215;54;20030;-61
2022/02/13 07:41:45;;;;;;;15.68;9.90;;;;;;;-0.98;72.68;99171.28;2618095;54;20086;-62
2022/02/13 07:44:14;;;;;;;15.63;9.27;;;;;;;-0.89;72.57;99162.81;2618343;54;20046;-60
2022/02/13 07:46:44;;;;;;;15.65;10.05;;;;;;;-0.87;72.08;99153.16;2618229;46;20054;-61
2022/02/13 07:49:14;;;;;;;19.73;11.30;;;;;;;-0.72;72.48;99151.22;2620426;54;20039;-62
2022/02/13 07:51:43;;;;;;;17.05;10.27;;;;;;;-0.61;72.46;99160.81;2622338;54;20033;-62
2022/02/13 07:54:17;;;;;;;15.93;10.18;;;;;;;-0.50;72.09;99156.47;2622502;54;20027;-61
2022/02/13 07:56:47;;;;;;;16.67;10.52;;;;;;;-0.40;71.79;99159.22;2620390;54;20038;-63
2022/02/13 07:59:17;;;;;;;16.25;9.63;;;;;;;-0.35;71.53;99151.91;2618219;54;20557;-62
2022/02/13 08:01:47;;;;;;;14.73;9.98;;;;;;;-0.29;71.71;99153.22;2618410;54;20084;-61
2022/02/13 08:04:16;;;;;;;15.55;10.25;;;;;;;-0.18;72.06;99150.63;2618035;54;20033;-62
2022/02/13 08:06:46;;;;;;;17.85;11.05;;;;;;;-0.10;71.70;99153.47;2618154;54;20549;-62
2022/02/13 08:09:18;;;;;;;16.27;11.57;;;;;;;-0.01;71.67;99150.16;2618389;54;20545;-62
2022/02/13 08:11:48;;;;;;;18.05;11.38;;;;;;;0.07;71.18;99156.56;2618190;54;20070;-62
2022/02/13 08:14:17;;;;;;;16.75;10.77;;;;;;;0.16;71.56;99140.25;2617828;54;20035;-61
2022/02/13 08:16:47;;;;;;;17.95;10.60;;;;;;;0.23;71.35;99147.47;2618061;54;20042;-59
2022/02/13 08:19:16;;;;;;;16.98;11.45;;;;;;;0.32;70.84;99143.31;2618007;54;20033;-59
2022/02/13 08:21:46;;;;;;;17.83;11.40;;;;;;;0.36;71.29;99146.50;2618081;54;20081;-59
2022/02/13 08:24:19;;;;;;;18.50;13.07;;;;;;;0.40;71.46;99146.16;2617960;54;20517;-60
2022/02/13 08:26:50;;;;;;;17.52;12.35;;;;;;;0.53;71.38;99142.59;2618140;54;20089;-60
2022/02/13 08:29:20;;;;;;;20.33;12.75;;;;;;;0.61;71.34;99138.47;2618120;54;20040;-64
2022/02/13 08:31:49;;;;;;;27.23;15.95;;;;;;;0.76;71.41;99138.19;2618026;54;20059;-63
2022/02/13 08:34:19;;;;;;;25.52;17.02;;;;;;;0.93;71.56;99137.66;2617666;54;20546;-60
2022/02/13 08:36:49;;;;;;;27.88;17.05;;;;;;;1.02;71.02;99138.69;2618109;54;20046;-60
2022/02/13 08:39:21;;;;;;;25.85;17.35;;;;;;;1.17;71.54;99124.44;2617627;54;20154;-60
2022/02/13 08:41:51;;;;;;;22.38;15.10;;;;;;;1.21;71.15;99131.88;2617567;54;20042;-59
2022/02/13 08:44:21;;;;;;;26.08;17.00;;;;;;;1.35;70.99;99122.94;2617793;54;20038;-63
2022/02/13 08:46:50;;;;;;;25.27;16.20;;;;;;;1.45;70.58;99117.78;2617896;54;20039;-60
2022/02/13 08:49:20;;;;;;;24.10;14.32;;;;;;;1.56;70.93;99129.94;2618171;46;20124;-61
2022/02/13 08:51:49;;;;;;;22.90;14.18;;;;;;;1.64;70.63;99124.91;2617922;54;20046;-60
2022/02/13 08:54:21;;;;;;;22.67;14.05;;;;;;;1.73;71.01;99131.97;2617775;54;20052;-60
2022/02/13 08:56:51;;;;;;;22.20;13.68;;;;;;;1.83;71.08;99121.59;2617959;54;20635;-61
2022/02/13 08:59:21;;;;;;;16.88;10.63;;;;;;;1.99;71.61;99111.50;2618183;54;20063;-61
2022/02/13 09:01:50;;;;;;;20.42;11.45;;;;;;;2.22;71.81;99101.72;2617754;54;20053;-60
2022/02/13 09:04:20;;;;;;;20.65;13.05;;;;;;;2.50;71.75;99097.56;2617667;54;20022;-60
2022/02/13 09:06:49;;;;;;;22.38;11.93;;;;;;;2.87;72.32;99089.09;2617562;47;20560;-60
2022/02/13 09:09:23;;;;;;;19.35;11.68;;;;;;;3.31;72.86;99092.13;2618675;54;20090;-62
2022/02/13 09:11:52;;;;;;;18.55;11.00;;;;;;;3.71;72.20;99078.81;2618914;54;20042;-61
2022/02/13 09:14:22;;;;;;;18.88;10.48;;;;;;;4.02;72.32;99082.00;2618325;54;20034;-61
2022/02/13 09:16:52;;;;;;;17.20;9.73;;;;;;;4.33;71.77;99081.75;2618771;54;20030;-60
2022/02/13 09:19:22;;;;;;;18.02;10.57;;;;;;;4.61;71.13;99079.91;2618087;51;20038;-61
2022/02/13 09:21:52;;;;;;;15.52;10.25;;;;;;;4.85;69.96;99074.91;2618849;54;20061;-62
2022/02/13 09:24:25;;;;;;;17.85;10.38;;;;;;;5.02;69.48;99075.06;2618617;54;20038;-63
2022/02/13 09:26:54;;;;;;;20.88;10.18;;;;;;;5.19;69.11;99079.50;2618912;54;20031;-62
2022/02/13 09:29:24;;;;;;;18.48;11.57;;;;;;;5.34;68.85;99067.47;2618863;54;20103;-62
2022/02/13 09:31:54;;;;;;;18.40;11.40;;;;;;;5.49;68.35;99066.94;2619767;54;20081;-61
2022/02/13 09:34:28;;;;;;;17.42;9.75;;;;;;;5.63;68.13;99064.59;2620939;54;20035;-63
2022/02/13 09:36:58;;;;;;;15.80;10.05;;;;;;;5.73;67.62;99061.84;2621439;54;20030;-63
2022/02/13 09:39:32;;;;;;;13.93;9.00;;;;;;;5.89;66.48;99061.13;2623085;54;20035;-62
2022/02/13 09:42:01;;;;;;;19.58;9.32;;;;;;;6.00;66.68;99055.63;2622571;54;20031;-62
2022/02/13 09:44:31;;;;;;;15.85;9.10;;;;;;;6.11;66.03;99050.06;2623073;54;20038;-62
2022/02/13 09:47:01;;;;;;;16.10;8.57;;;;;;;6.23;65.37;99044.56;2623126;54;20030;-63
2022/02/13 09:49:31;;;;;;;16.35;8.93;;;;;;;6.31;65.13;99047.19;2623390;54;20585;-60
2022/02/13 09:52:01;;;;;;;19.67;9.38;;;;;;;6.42;64.91;99041.66;2621950;54;20518;-61
2022/02/13 09:54:34;;;;;;;15.10;9.02;;;;;;;6.49;64.42;99040.06;2622730;54;20042;-61
2022/02/13 09:59:55;;;;;;;17.35;9.70;;;;;;;6.73;63.68;99028.75;2621019;54;20035;-61
2022/02/13 10:02:36;;;;;;;15.00;9.10;;;;;;;6.78;63.08;99023.84;2619353;54;20541;-62
2022/02/13 10:05:08;;;;;;;16.02;9.63;;;;;;;6.87;62.80;99030.75;2619741;54;20062;-62
2022/02/13 10:07:39;;;;;;;20.52;10.57;;;;;;;6.94;61.94;99039.63;2620018;47;20567;-62
2022/02/13 10:10:14;;;;;;;19.17;10.52;;;;;;;7.03;61.82;99026.47;2620009;54;20082;-62
2022/02/13 10:12:48;;;;;;;17.05;9.73;;;;;;;7.10;61.11;99030.06;2619588;54;20029;-61
2022/02/13 10:15:30;;;;;;;23.63;14.45;;;;;;;7.23;60.64;99017.28;2618394;54;20138;-61
2022/02/13 10:18:02;;;;;;;17.45;10.38;;;;;;;7.29;60.84;99021.84;2618617;54;20031;-61
2022/02/13 10:20:34;;;;;;;23.80;9.77;;;;;;;7.41;60.18;99020.53;2618683;54;20035;-61
2022/02/13 10:23:08;;;;;;;19.30;9.27;;;;;;;7.44;59.60;99024.63;2618711;54;20082;-63
2022/02/13 10:25:42;;;;;;;15.93;8.75;;;;;;;7.55;59.83;99018.19;2618017;54;20031;-61
2022/02/13 10:28:13;;;;;;;15.00;8.63;;;;;;;7.62;59.29;99019.16;2619009;54;20562;-61
2022/02/13 10:30:45;;;;;;;19.23;9.20;;;;;;;7.74;59.50;99012.56;2618292;54;20034;-62
2022/02/13 10:33:18;;;;;;;16.00;8.95;;;;;;;7.86;58.92;99005.13;2618548;54;20057;-62
2022/02/13 10:36:04;;;;;;;24.10;9.52;;;;;;;7.92;57.91;99009.72;2618427;54;20042;-62
2022/02/13 10:38:36;;;;;;;15.27;8.57;;;;;;;7.98;58.00;99008.22;2618818;54;20041;-62
2022/02/13 10:41:20;;;;;;;16.73;9.70;;;;;;;8.06;58.24;99009.00;2618598;54;20608;-62
2022/02/13 10:44:08;;;;;;;21.65;9.48;;;;;;;8.16;57.69;98999.09;2618567;54;20061;-61
2022/02/13 10:46:41;;;;;;;14.70;8.82;;;;;;;8.20;57.65;98994.25;2618275;54;20034;-61
2022/02/13 10:49:14;;;;;;;16.20;8.88;;;;;;;8.32;57.52;98994.69;2618636;54;20039;-62
2022/02/13 10:51:44;;;;;;;16.35;8.95;;;;;;;8.48;57.44;98984.09;2618883;54;20039;-62
2022/02/13 10:54:15;;;;;;;15.93;10.65;;;;;;;8.57;56.26;98976.94;2617872;51;20035;-62
2022/02/13 10:56:47;;;;;;;14.27;8.77;;;;;;;8.63;56.25;98971.00;2618329;54;20541;-63
2022/02/13 10:59:17;;;;;;;12.63;8.40;;;;;;;8.63;56.03;98963.91;2618293;54;20081;-62
2022/02/13 11:01:50;;;;;;;14.73;8.45;;;;;;;8.70;55.78;98971.13;2618077;54;20045;-63
2022/02/13 11:04:21;;;;;;;14.02;8.23;;;;;;;8.73;55.60;98950.47;2617932;54;20030;-60
2022/02/13 11:06:52;;;;;;;11.98;8.57;;;;;;;8.82;55.38;98948.63;2617960;54;20030;-61
2022/02/13 11:09:26;;;;;;;14.85;7.97;;;;;;;8.85;54.89;98942.97;2617963;54;20034;-60
2022/02/13 11:11:58;;;;;;;14.98;9.27;;;;;;;8.91;55.18;98937.81;2618361;54;20541;-59
2022/02/13 11:14:34;;;;;;;16.73;8.43;;;;;;;8.98;54.98;98942.38;2618045;54;20127;-61
2022/02/13 11:17:05;;;;;;;19.73;8.43;;;;;;;8.98;54.35;98929.19;2618425;54;20034;-62
2022/02/13 11:19:35;;;;;;;11.98;8.40;;;;;;;9.08;54.61;98924.47;2618344;54;20560;-60
2022/02/13 11:22:06;;;;;;;19.33;10.52;;;;;;;9.10;53.86;98919.84;2618001;47;20126;-61
2022/02/13 11:24:37;;;;;;;21.40;12.23;;;;;;;9.17;53.84;98915.47;2618114;54;20042;-62
2022/02/13 11:27:21;;;;;;;14.80;9.07;;;;;;;9.25;53.76;98909.31;2617787;47;20063;-63
2022/02/13 11:29:54;;;;;;;19.08;9.60;;;;;;;9.26;53.60;98913.56;2618278;54;20046;-62
2022/02/13 11:32:39;;;;;;;16.38;9.13;;;;;;;9.31;53.06;98906.78;2617800;54;20039;-62
2022/02/13 11:35:12;;;;;;;13.98;8.35;;;;;;;9.32;52.97;98911.03;2617960;54;20026;-61
2022/02/13 11:37:43;;;;;;;13.68;9.40;;;;;;;9.35;53.17;98899.31;2618298;54;20085;-64
2022/02/13 11:40:54;;;;;;;14.80;8.15;;;;;;;9.43;52.64;98888.66;2618458;54;20543;-60
2022/02/13 11:44:02;;;;;;;16.80;8.82;;;;;;;9.47;52.38;98887.31;2618169;31;20476;-62
2022/02/13 11:47:00;;;;;;;14.43;7.50;;;;;;;9.51;52.14;98874.53;2618229;54;20064;-62